createdAt,value
2022-12-20T00:00:22.930Z,15.88
2022-12-20T00:05:52.128Z,13.60
2022-12-20T00:11:21.473Z,15.07
2022-12-20T00:16:52.038Z,23.23
2022-12-20T00:22:21.075Z,21.42
2022-12-20T00:27:44.650Z,29.85
2022-12-20T00:33:11.808Z,34.63
2022-12-20T00:38:42.826Z,46.25
2022-12-20T00:49:37.225Z,50.67
2022-12-20T00:55:06.604Z,38.63
2022-12-20T01:00:36.421Z,36.22
2022-12-20T01:06:07.475Z,25.15
2022-12-20T01:11:36.723Z,32.10
2022-12-20T01:17:05.456Z,24.98
2022-12-20T01:22:35.554Z,28.88
2022-12-20T01:28:03.995Z,30.80
2022-12-20T01:33:33.248Z,27.27
2022-12-20T01:39:06.952Z,38.17
2022-12-20T01:44:58.573Z,49.85
2022-12-20T01:50:28.578Z,38.30
2022-12-20T01:56:01.242Z,41.27
2022-12-20T02:01:30.492Z,27.40
2022-12-20T02:06:59.192Z,22.57
2022-12-20T02:12:35.407Z,18.58
2022-12-20T02:18:16.578Z,21.70
2022-12-20T02:24:20.505Z,34.53
2022-12-20T02:30:12.485Z,38.08
2022-12-20T02:35:43.113Z,37.08
2022-12-20T02:41:23.294Z,46.10
2022-12-20T02:46:56.965Z,42.13
2022-12-20T02:52:32.099Z,37.13
2022-12-20T02:58:06.269Z,30.92
2022-12-20T03:03:37.862Z,36.25
2022-12-20T03:09:07.107Z,43.58
2022-12-20T03:14:37.874Z,37.80
2022-12-20T03:20:12.316Z,30.77
2022-12-20T03:25:41.642Z,27.60
2022-12-20T03:31:15.450Z,27.58
2022-12-20T03:36:51.188Z,31.85
2022-12-20T03:42:20.423Z,41.90
2022-12-20T03:47:49.622Z,40.20
2022-12-20T03:53:20.295Z,31.52
2022-12-20T03:58:49.258Z,27.42
2022-12-20T04:04:18.152Z,44.33
2022-12-20T04:09:48.288Z,85.63
2022-12-20T04:15:18.296Z,53.42
2022-12-20T04:20:54.020Z,74.20
2022-12-20T04:26:30.161Z,84.45
2022-12-20T08:56:41.663Z,35.17
2022-12-20T09:02:08.496Z,38.40
2022-12-20T09:07:33.737Z,38.20
2022-12-20T09:12:59.416Z,32.58
2022-12-20T09:18:23.579Z,28.38
2022-12-20T09:23:47.285Z,25.80
2022-12-20T09:29:25.010Z,27.40
2022-12-20T09:34:56.446Z,28.42
2022-12-20T09:40:30.141Z,25.73
2022-12-20T09:46:03.203Z,32.10
2022-12-20T09:51:49.095Z,25.17
2022-12-20T09:57:25.146Z,29.98
2022-12-20T10:03:04.097Z,32.28
2022-12-20T10:08:47.057Z,31.73
2022-12-20T10:14:34.486Z,21.95
2022-12-20T10:20:15.057Z,22.30
2022-12-20T10:25:41.802Z,20.92
2022-12-20T10:31:09.562Z,23.27
2022-12-20T10:36:35.776Z,29.40
2022-12-20T10:41:59.971Z,24.00
2022-12-20T10:47:39.240Z,30.02
2022-12-20T10:53:24.286Z,14.33
2022-12-20T10:59:00.079Z,19.70
2022-12-20T11:04:32.267Z,19.35
2022-12-20T11:10:05.355Z,26.55
2022-12-20T11:15:36.922Z,21.45
2022-12-20T11:21:28.365Z,21.55
2022-12-20T11:27:17.756Z,32.55
2022-12-20T11:33:10.454Z,20.60
2022-12-20T11:38:44.404Z,16.98
2022-12-20T11:44:26.704Z,28.48
2022-12-20T11:50:04.779Z,36.95
2022-12-20T11:55:37.136Z,20.27
2022-12-20T12:01:13.741Z,29.17
2022-12-20T12:06:47.168Z,22.58
2022-12-20T12:12:25.504Z,18.88
2022-12-20T12:18:01.899Z,24.20
2022-12-20T12:23:38.289Z,22.13
2022-12-20T12:29:12.545Z,20.10
2022-12-20T12:34:59.020Z,19.88
2022-12-20T12:40:52.435Z,31.67
2022-12-20T12:46:28.373Z,24.20
2022-12-20T12:52:01.849Z,22.20
2022-12-20T12:57:58.328Z,23.58
2022-12-20T13:03:52.567Z,26.88
2022-12-20T13:09:38.767Z,17.98
2022-12-20T13:15:41.514Z,26.77
2022-12-20T13:21:37.440Z,38.45
2022-12-20T13:27:28.257Z,40.03
2022-12-20T13:33:44.169Z,39.08
2022-12-20T13:39:38.079Z,37.58
2022-12-20T13:45:15.324Z,38.70
2022-12-20T13:50:50.940Z,46.45
2022-12-20T13:56:36.262Z,36.03
2022-12-20T17:29:54.043Z,17.42
2022-12-20T17:35:25.393Z,13.40
2022-12-20T17:40:50.341Z,21.70
2022-12-20T17:46:21.785Z,19.02
2022-12-20T17:51:48.081Z,13.48
2022-12-20T17:57:15.514Z,16.38
2022-12-20T18:02:42.944Z,11.40
2022-12-20T18:08:13.377Z,12.27
2022-12-20T18:13:37.209Z,13.20
2022-12-20T18:19:04.598Z,10.77
2022-12-20T18:24:30.037Z,13.88
2022-12-20T18:29:52.977Z,14.35
2022-12-20T18:35:19.980Z,15.52
2022-12-20T18:40:45.985Z,13.52
2022-12-20T18:46:18.084Z,18.27
2022-12-20T18:51:43.905Z,16.88
2022-12-20T18:57:07.707Z,18.35
2022-12-20T19:02:36.519Z,16.58
2022-12-20T19:08:06.747Z,13.43
2022-12-20T19:13:31.782Z,24.65
2022-12-20T19:18:55.036Z,33.78
2022-12-20T19:24:20.143Z,27.45
2022-12-20T19:29:49.310Z,17.77
2022-12-20T19:35:53.451Z,21.27
2022-12-20T19:41:09.023Z,14.25
2022-12-20T19:46:38.292Z,16.05
2022-12-20T19:52:08.059Z,17.73
2022-12-20T19:57:38.453Z,11.35
2022-12-20T20:03:07.400Z,12.57
2022-12-20T20:08:36.693Z,13.40
2022-12-20T20:14:09.446Z,13.70
2022-12-20T20:19:40.028Z,11.98
2022-12-20T20:25:09.583Z,12.18
2022-12-20T20:30:42.321Z,9.52
2022-12-20T20:36:14.532Z,12.25
2022-12-20T20:41:43.408Z,13.27
2022-12-20T20:47:13.671Z,11.57
2022-12-20T20:52:42.350Z,14.43
2022-12-20T20:58:11.834Z,11.70
2022-12-20T21:03:42.322Z,13.15
2022-12-20T21:09:11.515Z,18.73
2022-12-20T21:15:20.212Z,15.15
2022-12-20T21:20:31.021Z,10.07
2022-12-20T21:26:01.273Z,13.77
2022-12-20T21:31:30.981Z,19.08
2022-12-20T21:42:30.269Z,15.20
2022-12-20T21:48:03.079Z,15.40
2022-12-20T21:53:34.790Z,13.38
2022-12-20T21:59:04.480Z,13.82
